sensor_id;sensor_type;location;lat;lon;timestamp;P1;durP1;ratioP1;P2;durP2;ratioP2
40433;SDS011;26146;51.114;5.654;2023-08-24T00:00:27;11.93;;;6.20;;
40433;SDS011;26146;51.114;5.654;2023-08-24T00:04:28;11.27;;;6.60;;
40433;SDS011;26146;51.114;5.654;2023-08-24T00:08:29;12.55;;;6.40;;
40433;SDS011;26146;51.114;5.654;2023-08-24T00:12:30;13.23;;;6.38;;
40433;SDS011;26146;51.114;5.654;2023-08-24T00:16:33;15.65;;;7.15;;
40433;SDS011;26146;51.114;5.654;2023-08-24T00:20:34;15.82;;;7.25;;
40433;SDS011;26146;51.114;5.654;2023-08-24T00:24:35;12.43;;;7.68;;
40433;SDS011;26146;51.114;5.654;2023-08-24T00:28:38;16.05;;;7.80;;
40433;SDS011;26146;51.114;5.654;2023-08-24T00:32:39;12.95;;;7.00;;
40433;SDS011;26146;51.114;5.654;2023-08-24T00:36:40;12.60;;;6.97;;
40433;SDS011;26146;51.114;5.654;2023-08-24T00:40:41;13.35;;;6.90;;
40433;SDS011;26146;51.114;5.654;2023-08-24T00:44:44;12.73;;;7.38;;
40433;SDS011;26146;51.114;5.654;2023-08-24T00:48:44;13.35;;;6.95;;
40433;SDS011;26146;51.114;5.654;2023-08-24T00:52:46;11.80;;;7.05;;
40433;SDS011;26146;51.114;5.654;2023-08-24T00:56:47;14.98;;;7.55;;
40433;SDS011;26146;51.114;5.654;2023-08-24T01:00:49;15.13;;;7.50;;
40433;SDS011;26146;51.114;5.654;2023-08-24T01:04:52;14.30;;;7.63;;
40433;SDS011;26146;51.114;5.654;2023-08-24T01:08:54;16.17;;;7.85;;
40433;SDS011;26146;51.114;5.654;2023-08-24T01:17:03;13.25;;;7.20;;
40433;SDS011;26146;51.114;5.654;2023-08-24T01:21:06;11.43;;;6.55;;
40433;SDS011;26146;51.114;5.654;2023-08-24T01:25:20;13.48;;;7.60;;
40433;SDS011;26146;51.114;5.654;2023-08-24T01:29:34;13.68;;;7.32;;
40433;SDS011;26146;51.114;5.654;2023-08-24T01:33:36;13.70;;;7.47;;
40433;SDS011;26146;51.114;5.654;2023-08-24T01:37:37;13.68;;;7.43;;
40433;SDS011;26146;51.114;5.654;2023-08-24T01:41:38;14.43;;;7.43;;
40433;SDS011;26146;51.114;5.654;2023-08-24T01:49:44;13.77;;;7.38;;
40433;SDS011;26146;51.114;5.654;2023-08-24T01:53:45;12.55;;;7.15;;
40433;SDS011;26146;51.114;5.654;2023-08-24T01:57:48;16.83;;;7.68;;
40433;SDS011;26146;51.114;5.654;2023-08-24T02:01:49;13.32;;;7.47;;
40433;SDS011;26146;51.114;5.654;2023-08-24T02:05:50;16.08;;;7.78;;
40433;SDS011;26146;51.114;5.654;2023-08-24T02:09:51;13.43;;;7.55;;
40433;SDS011;26146;51.114;5.654;2023-08-24T02:13:52;15.13;;;7.20;;
40433;SDS011;26146;51.114;5.654;2023-08-24T02:17:53;16.02;;;8.40;;
40433;SDS011;26146;51.114;5.654;2023-08-24T02:21:54;12.57;;;7.03;;
40433;SDS011;26146;51.114;5.654;2023-08-24T02:25:56;13.48;;;7.85;;
40433;SDS011;26146;51.114;5.654;2023-08-24T02:29:57;13.13;;;7.75;;
40433;SDS011;26146;51.114;5.654;2023-08-24T02:33:58;15.43;;;7.85;;
40433;SDS011;26146;51.114;5.654;2023-08-24T02:37:59;12.57;;;7.40;;
40433;SDS011;26146;51.114;5.654;2023-08-24T02:42:02;13.48;;;7.40;;
40433;SDS011;26146;51.114;5.654;2023-08-24T02:46:03;14.57;;;7.55;;
40433;SDS011;26146;51.114;5.654;2023-08-24T02:50:05;13.63;;;7.22;;
40433;SDS011;26146;51.114;5.654;2023-08-24T02:54:07;12.27;;;7.28;;
40433;SDS011;26146;51.114;5.654;2023-08-24T02:58:08;14.02;;;7.75;;
40433;SDS011;26146;51.114;5.654;2023-08-24T03:02:09;13.70;;;7.28;;
40433;SDS011;26146;51.114;5.654;2023-08-24T03:06:10;15.13;;;7.85;;
40433;SDS011;26146;51.114;5.654;2023-08-24T03:10:11;14.60;;;8.27;;
40433;SDS011;26146;51.114;5.654;2023-08-24T03:14:15;13.48;;;7.68;;
40433;SDS011;26146;51.114;5.654;2023-08-24T03:18:16;17.13;;;8.68;;
40433;SDS011;26146;51.114;5.654;2023-08-24T03:22:18;20.25;;;9.60;;
40433;SDS011;26146;51.114;5.654;2023-08-24T03:26:19;16.80;;;9.00;;
40433;SDS011;26146;51.114;5.654;2023-08-24T03:30:20;19.33;;;9.65;;
40433;SDS011;26146;51.114;5.654;2023-08-24T03:34:22;16.75;;;10.38;;
40433;SDS011;26146;51.114;5.654;2023-08-24T03:38:23;17.75;;;10.57;;
40433;SDS011;26146;51.114;5.654;2023-08-24T03:42:24;18.77;;;11.35;;
40433;SDS011;26146;51.114;5.654;2023-08-24T03:46:25;20.92;;;11.80;;
40433;SDS011;26146;51.114;5.654;2023-08-24T03:50:26;22.27;;;12.88;;
40433;SDS011;26146;51.114;5.654;2023-08-24T03:54:27;20.02;;;11.70;;
40433;SDS011;26146;51.114;5.654;2023-08-24T03:58:28;19.02;;;10.95;;
40433;SDS011;26146;51.114;5.654;2023-08-24T04:02:29;20.85;;;11.32;;
40433;SDS011;26146;51.114;5.654;2023-08-24T04:06:30;17.88;;;10.35;;
40433;SDS011;26146;51.114;5.654;2023-08-24T04:10:32;15.82;;;10.18;;
40433;SDS011;26146;51.114;5.654;2023-08-24T04:14:33;17.38;;;10.52;;
40433;SDS011;26146;51.114;5.654;2023-08-24T04:18:34;19.05;;;10.07;;
40433;SDS011;26146;51.114;5.654;2023-08-24T04:22:35;21.42;;;10.18;;
40433;SDS011;26146;51.114;5.654;2023-08-24T04:26:36;15.95;;;9.63;;
40433;SDS011;26146;51.114;5.654;2023-08-24T04:30:37;17.67;;;8.93;;
40433;SDS011;26146;51.114;5.654;2023-08-24T04:34:39;17.05;;;9.85;;
40433;SDS011;26146;51.114;5.654;2023-08-24T04:38:40;17.10;;;9.88;;
40433;SDS011;26146;51.114;5.654;2023-08-24T04:42:41;14.90;;;8.77;;
40433;SDS011;26146;51.114;5.654;2023-08-24T04:46:42;15.80;;;9.32;;
40433;SDS011;26146;51.114;5.654;2023-08-24T04:50:44;16.23;;;8.95;;
40433;SDS011;26146;51.114;5.654;2023-08-24T04:54:45;17.30;;;9.27;;
40433;SDS011;26146;51.114;5.654;2023-08-24T04:58:53;15.57;;;8.65;;
40433;SDS011;26146;51.114;5.654;2023-08-24T05:02:57;13.57;;;9.00;;
40433;SDS011;26146;51.114;5.654;2023-08-24T05:06:58;17.17;;;8.50;;
40433;SDS011;26146;51.114;5.654;2023-08-24T05:10:59;14.98;;;8.30;;
40433;SDS011;26146;51.114;5.654;2023-08-24T05:15:00;14.68;;;7.97;;
40433;SDS011;26146;51.114;5.654;2023-08-24T05:19:01;16.65;;;8.82;;
40433;SDS011;26146;51.114;5.654;2023-08-24T05:23:03;15.40;;;8.55;;
40433;SDS011;26146;51.114;5.654;2023-08-24T05:27:04;16.67;;;8.55;;
40433;SDS011;26146;51.114;5.654;2023-08-24T05:31:05;13.57;;;8.40;;
40433;SDS011;26146;51.114;5.654;2023-08-24T05:35:07;13.52;;;8.07;;
40433;SDS011;26146;51.114;5.654;2023-08-24T05:39:08;12.88;;;7.57;;
40433;SDS011;26146;51.114;5.654;2023-08-24T05:43:11;13.45;;;8.10;;
40433;SDS011;26146;51.114;5.654;2023-08-24T05:47:12;13.85;;;7.70;;
40433;SDS011;26146;51.114;5.654;2023-08-24T05:51:12;12.63;;;7.30;;
40433;SDS011;26146;51.114;5.654;2023-08-24T05:55:14;13.35;;;7.40;;
40433;SDS011;26146;51.114;5.654;2023-08-24T05:59:15;13.38;;;6.47;;
40433;SDS011;26146;51.114;5.654;2023-08-24T06:03:16;13.73;;;6.47;;
40433;SDS011;26146;51.114;5.654;2023-08-24T06:07:17;15.15;;;5.80;;
40433;SDS011;26146;51.114;5.654;2023-08-24T06:11:18;10.50;;;5.55;;
40433;SDS011;26146;51.114;5.654;2023-08-24T06:15:19;11.65;;;5.35;;
40433;SDS011;26146;51.114;5.654;2023-08-24T06:19:23;11.00;;;5.70;;
40433;SDS011;26146;51.114;5.654;2023-08-24T06:23:24;10.88;;;5.85;;
40433;SDS011;26146;51.114;5.654;2023-08-24T06:27:26;12.60;;;6.35;;
40433;SDS011;26146;51.114;5.654;2023-08-24T06:31:29;10.82;;;5.93;;
40433;SDS011;26146;51.114;5.654;2023-08-24T06:35:34;10.05;;;4.93;;
40433;SDS011;26146;51.114;5.654;2023-08-24T06:39:35;10.75;;;5.50;;
40433;SDS011;26146;51.114;5.654;2023-08-24T06:43:36;10.88;;;5.30;;
40433;SDS011;26146;51.114;5.654;2023-08-24T06:47:39;11.65;;;5.40;;
40433;SDS011;26146;51.114;5.654;2023-08-24T06:51:40;10.13;;;5.13;;
40433;SDS011;26146;51.114;5.654;2023-08-24T06:55:41;10.85;;;5.15;;
40433;SDS011;26146;51.114;5.654;2023-08-24T06:59:42;9.98;;;4.85;;
40433;SDS011;26146;51.114;5.654;2023-08-24T07:03:43;10.02;;;4.70;;
40433;SDS011;26146;51.114;5.654;2023-08-24T07:07:44;9.70;;;4.40;;
40433;SDS011;26146;51.114;5.654;2023-08-24T07:11:46;9.55;;;4.05;;
40433;SDS011;26146;51.114;5.654;2023-08-24T07:15:47;9.73;;;4.47;;
40433;SDS011;26146;51.114;5.654;2023-08-24T07:19:48;8.60;;;4.00;;
40433;SDS011;26146;51.114;5.654;2023-08-24T07:23:49;9.63;;;4.43;;
40433;SDS011;26146;51.114;5.654;2023-08-24T07:27:50;9.98;;;4.13;;
40433;SDS011;26146;51.114;5.654;2023-08-24T07:31:51;10.68;;;4.68;;
40433;SDS011;26146;51.114;5.654;2023-08-24T07:35:52;10.88;;;4.60;;
40433;SDS011;26146;51.114;5.654;2023-08-24T07:39:53;10.25;;;4.55;;
40433;SDS011;26146;51.114;5.654;2023-08-24T07:43:54;10.60;;;4.53;;
40433;SDS011;26146;51.114;5.654;2023-08-24T07:47:55;11.75;;;4.82;;
40433;SDS011;26146;51.114;5.654;2023-08-24T07:51:56;9.45;;;4.55;;
40433;SDS011;26146;51.114;5.654;2023-08-24T07:55:57;11.43;;;4.60;;
40433;SDS011;26146;51.114;5.654;2023-08-24T07:59:58;15.40;;;5.05;;
40433;SDS011;26146;51.114;5.654;2023-08-24T08:04:00;11.23;;;5.03;;
40433;SDS011;26146;51.114;5.654;2023-08-24T08:08:01;12.95;;;5.15;;
40433;SDS011;26146;51.114;5.654;2023-08-24T08:12:02;12.75;;;5.38;;
40433;SDS011;26146;51.114;5.654;2023-08-24T08:16:04;11.70;;;5.32;;
40433;SDS011;26146;51.114;5.654;2023-08-24T08:20:07;9.65;;;4.72;;
40433;SDS011;26146;51.114;5.654;2023-08-24T08:24:08;10.55;;;4.72;;
40433;SDS011;26146;51.114;5.654;2023-08-24T08:28:09;10.70;;;4.88;;
40433;SDS011;26146;51.114;5.654;2023-08-24T08:32:11;11.13;;;4.50;;
40433;SDS011;26146;51.114;5.654;2023-08-24T08:36:15;10.80;;;4.40;;
40433;SDS011;26146;51.114;5.654;2023-08-24T08:40:19;11.43;;;4.10;;
40433;SDS011;26146;51.114;5.654;2023-08-24T08:44:21;10.40;;;4.47;;
40433;SDS011;26146;51.114;5.654;2023-08-24T08:48:26;11.60;;;4.20;;
40433;SDS011;26146;51.114;5.654;2023-08-24T08:52:31;10.93;;;4.10;;
40433;SDS011;26146;51.114;5.654;2023-08-24T08:56:34;11.70;;;4.50;;
40433;SDS011;26146;51.114;5.654;2023-08-24T09:00:35;10.50;;;3.97;;
40433;SDS011;26146;51.114;5.654;2023-08-24T09:04:38;10.35;;;4.00;;
40433;SDS011;26146;51.114;5.654;2023-08-24T09:08:42;9.73;;;4.50;;
40433;SDS011;26146;51.114;5.654;2023-08-24T09:12:43;11.27;;;4.03;;
40433;SDS011;26146;51.114;5.654;2023-08-24T09:16:44;10.88;;;4.10;;
40433;SDS011;26146;51.114;5.654;2023-08-24T09:20:46;9.10;;;3.97;;
40433;SDS011;26146;51.114;5.654;2023-08-24T09:24:48;9.18;;;3.88;;
40433;SDS011;26146;51.114;5.654;2023-08-24T09:28:52;10.90;;;3.83;;
40433;SDS011;26146;51.114;5.654;2023-08-24T09:32:53;9.57;;;4.20;;
40433;SDS011;26146;51.114;5.654;2023-08-24T09:36:54;10.30;;;3.90;;
40433;SDS011;26146;51.114;5.654;2023-08-24T09:40:55;8.13;;;2.80;;
40433;SDS011;26146;51.114;5.654;2023-08-24T09:45:02;11.73;;;3.92;;
40433;SDS011;26146;51.114;5.654;2023-08-24T09:49:05;9.27;;;3.20;;
40433;SDS011;26146;51.114;5.654;2023-08-24T09:53:07;8.90;;;3.15;;
40433;SDS011;26146;51.114;5.654;2023-08-24T09:57:13;9.73;;;3.70;;
40433;SDS011;26146;51.114;5.654;2023-08-24T10:01:15;9.77;;;3.60;;
40433;SDS011;26146;51.114;5.654;2023-08-24T10:05:24;8.85;;;3.22;;
40433;SDS011;26146;51.114;5.654;2023-08-24T10:09:31;9.07;;;3.78;;
40433;SDS011;26146;51.114;5.654;2023-08-24T10:17:50;8.02;;;3.00;;
40433;SDS011;26146;51.114;5.654;2023-08-24T10:21:53;9.40;;;3.30;;
40433;SDS011;26146;51.114;5.654;2023-08-24T10:25:57;8.45;;;2.80;;
40433;SDS011;26146;51.114;5.654;2023-08-24T10:30:00;8.00;;;2.47;;
40433;SDS011;26146;51.114;5.654;2023-08-24T10:34:01;6.97;;;2.55;;
40433;SDS011;26146;51.114;5.654;2023-08-24T10:38:06;9.50;;;3.15;;
40433;SDS011;26146;51.114;5.654;2023-08-24T10:42:10;9.20;;;2.58;;
40433;SDS011;26146;51.114;5.654;2023-08-24T10:46:15;7.03;;;2.13;;
40433;SDS011;26146;51.114;5.654;2023-08-24T10:50:17;6.40;;;2.10;;
40433;SDS011;26146;51.114;5.654;2023-08-24T10:54:18;9.85;;;2.70;;
40433;SDS011;26146;51.114;5.654;2023-08-24T11:02:48;8.10;;;2.47;;
40433;SDS011;26146;51.114;5.654;2023-08-24T11:06:56;8.45;;;2.30;;
40433;SDS011;26146;51.114;5.654;2023-08-24T11:10:59;9.15;;;2.70;;
40433;SDS011;26146;51.114;5.654;2023-08-24T11:15:01;7.45;;;2.35;;
40433;SDS011;26146;51.114;5.654;2023-08-24T11:19:02;7.28;;;2.50;;
40433;SDS011;26146;51.114;5.654;2023-08-24T11:23:07;9.68;;;2.90;;
40433;SDS011;26146;51.114;5.654;2023-08-24T11:27:09;8.23;;;2.80;;
40433;SDS011;26146;51.114;5.654;2023-08-24T11:31:12;7.82;;;2.75;;
40433;SDS011;26146;51.114;5.654;2023-08-24T11:35:13;8.27;;;3.00;;
40433;SDS011;26146;51.114;5.654;2023-08-24T11:39:23;10.35;;;2.90;;
40433;SDS011;26146;51.114;5.654;2023-08-24T11:43:31;8.52;;;3.05;;
40433;SDS011;26146;51.114;5.654;2023-08-24T11:47:32;9.38;;;2.90;;
40433;SDS011;26146;51.114;5.654;2023-08-24T11:51:33;8.52;;;2.97;;
40433;SDS011;26146;51.114;5.654;2023-08-24T11:55:39;8.02;;;3.33;;
40433;SDS011;26146;51.114;5.654;2023-08-24T11:59:41;8.77;;;3.17;;
40433;SDS011;26146;51.114;5.654;2023-08-24T12:03:44;8.15;;;3.40;;
40433;SDS011;26146;51.114;5.654;2023-08-24T12:07:45;8.77;;;3.40;;
40433;SDS011;26146;51.114;5.654;2023-08-24T12:11:46;8.15;;;3.25;;
40433;SDS011;26146;51.114;5.654;2023-08-24T12:15:47;7.47;;;3.10;;
40433;SDS011;26146;51.114;5.654;2023-08-24T12:19:58;9.68;;;3.47;;
40433;SDS011;26146;51.114;5.654;2023-08-24T12:24:04;12.35;;;3.42;;
40433;SDS011;26146;51.114;5.654;2023-08-24T12:28:15;9.80;;;3.40;;
40433;SDS011;26146;51.114;5.654;2023-08-24T12:32:16;9.55;;;3.50;;
40433;SDS011;26146;51.114;5.654;2023-08-24T12:36:25;8.82;;;3.30;;
40433;SDS011;26146;51.114;5.654;2023-08-24T12:40:26;8.48;;;3.33;;
40433;SDS011;26146;51.114;5.654;2023-08-24T12:44:27;8.93;;;3.50;;
40433;SDS011;26146;51.114;5.654;2023-08-24T12:48:31;8.50;;;3.33;;
40433;SDS011;26146;51.114;5.654;2023-08-24T12:52:31;8.55;;;3.30;;
40433;SDS011;26146;51.114;5.654;2023-08-24T12:56:34;8.85;;;3.75;;
40433;SDS011;26146;51.114;5.654;2023-08-24T13:00:35;8.75;;;3.45;;
40433;SDS011;26146;51.114;5.654;2023-08-24T13:04:39;7.72;;;3.42;;
40433;SDS011;26146;51.114;5.654;2023-08-24T13:08:40;8.77;;;3.42;;
40433;SDS011;26146;51.114;5.654;2023-08-24T13:12:43;9.32;;;3.53;;
40433;SDS011;26146;51.114;5.654;2023-08-24T13:16:43;8.32;;;3.35;;
40433;SDS011;26146;51.114;5.654;2023-08-24T13:20:46;10.00;;;3.42;;
40433;SDS011;26146;51.114;5.654;2023-08-24T13:24:49;8.67;;;3.33;;
40433;SDS011;26146;51.114;5.654;2023-08-24T13:28:50;9.02;;;3.40;;
40433;SDS011;26146;51.114;5.654;2023-08-24T13:32:52;8.70;;;3.38;;
40433;SDS011;26146;51.114;5.654;2023-08-24T13:36:55;7.97;;;3.25;;
40433;SDS011;26146;51.114;5.654;2023-08-24T13:40:56;8.75;;;3.10;;
40433;SDS011;26146;51.114;5.654;2023-08-24T13:44:59;10.50;;;3.15;;
40433;SDS011;26146;51.114;5.654;2023-08-24T13:49:00;8.38;;;3.10;;
40433;SDS011;26146;51.114;5.654;2023-08-24T13:53:02;8.93;;;3.22;;
40433;SDS011;26146;51.114;5.654;2023-08-24T13:57:03;10.45;;;3.22;;
40433;SDS011;26146;51.114;5.654;2023-08-24T14:01:04;8.10;;;3.05;;
40433;SDS011;26146;51.114;5.654;2023-08-24T14:05:06;9.15;;;3.35;;
40433;SDS011;26146;51.114;5.654;2023-08-24T14:09:11;9.70;;;3.00;;
40433;SDS011;26146;51.114;5.654;2023-08-24T14:13:14;8.65;;;3.10;;
40433;SDS011;26146;51.114;5.654;2023-08-24T14:17:15;7.30;;;2.60;;
40433;SDS011;26146;51.114;5.654;2023-08-24T14:21:18;8.57;;;2.55;;
40433;SDS011;26146;51.114;5.654;2023-08-24T14:25:24;6.70;;;1.90;;
40433;SDS011;26146;51.114;5.654;2023-08-24T14:29:24;6.35;;;1.70;;
40433;SDS011;26146;51.114;5.654;2023-08-24T14:33:25;6.78;;;1.58;;
40433;SDS011;26146;51.114;5.654;2023-08-24T14:37:27;5.82;;;1.50;;
40433;SDS011;26146;51.114;5.654;2023-08-24T14:41:27;6.32;;;1.60;;
40433;SDS011;26146;51.114;5.654;2023-08-24T14:45:28;5.80;;;1.70;;
40433;SDS011;26146;51.114;5.654;2023-08-24T14:49:31;6.85;;;1.50;;
40433;SDS011;26146;51.114;5.654;2023-08-24T14:53:35;6.65;;;1.38;;
40433;SDS011;26146;51.114;5.654;2023-08-24T14:57:36;7.97;;;1.50;;
40433;SDS011;26146;51.114;5.654;2023-08-24T15:01:37;4.95;;;1.35;;
40433;SDS011;26146;51.114;5.654;2023-08-24T15:05:42;5.70;;;1.40;;
40433;SDS011;26146;51.114;5.654;2023-08-24T15:09:44;5.63;;;1.40;;
40433;SDS011;26146;51.114;5.654;2023-08-24T15:13:46;5.70;;;1.50;;
40433;SDS011;26146;51.114;5.654;2023-08-24T15:17:48;5.90;;;1.30;;
40433;SDS011;26146;51.114;5.654;2023-08-24T15:21:51;5.63;;;1.40;;
40433;SDS011;26146;51.114;5.654;2023-08-24T15:25:53;5.82;;;1.35;;
40433;SDS011;26146;51.114;5.654;2023-08-24T15:29:55;6.35;;;1.45;;
40433;SDS011;26146;51.114;5.654;2023-08-24T15:33:55;5.30;;;1.30;;
40433;SDS011;26146;51.114;5.654;2023-08-24T15:37:56;6.45;;;1.10;;
40433;SDS011;26146;51.114;5.654;2023-08-24T15:41:58;6.05;;;1.10;;
40433;SDS011;26146;51.114;5.654;2023-08-24T15:45:59;6.05;;;1.10;;
40433;SDS011;26146;51.114;5.654;2023-08-24T15:50:00;6.10;;;1.23;;
40433;SDS011;26146;51.114;5.654;2023-08-24T15:54:03;5.28;;;1.00;;
40433;SDS011;26146;51.114;5.654;2023-08-24T15:58:04;8.77;;;1.40;;
40433;SDS011;26146;51.114;5.654;2023-08-24T16:02:05;4.47;;;0.95;;
40433;SDS011;26146;51.114;5.654;2023-08-24T16:06:08;4.45;;;0.98;;
40433;SDS011;26146;51.114;5.654;2023-08-24T16:10:09;5.47;;;1.27;;
40433;SDS011;26146;51.114;5.654;2023-08-24T16:14:11;6.40;;;0.95;;
40433;SDS011;26146;51.114;5.654;2023-08-24T16:18:14;4.28;;;1.02;;
40433;SDS011;26146;51.114;5.654;2023-08-24T16:22:15;3.40;;;0.98;;
40433;SDS011;26146;51.114;5.654;2023-08-24T16:26:16;4.18;;;1.05;;
40433;SDS011;26146;51.114;5.654;2023-08-24T16:30:18;5.40;;;1.20;;
40433;SDS011;26146;51.114;5.654;2023-08-24T16:34:20;7.72;;;2.95;;
40433;SDS011;26146;51.114;5.654;2023-08-24T16:38:25;5.75;;;1.60;;
40433;SDS011;26146;51.114;5.654;2023-08-24T16:42:25;4.83;;;0.90;;
40433;SDS011;26146;51.114;5.654;2023-08-24T16:46:31;4.28;;;1.10;;
40433;SDS011;26146;51.114;5.654;2023-08-24T16:50:35;8.50;;;3.50;;
40433;SDS011;26146;51.114;5.654;2023-08-24T16:54:38;7.13;;;2.45;;
40433;SDS011;26146;51.114;5.654;2023-08-24T16:58:39;5.80;;;1.40;;
40433;SDS011;26146;51.114;5.654;2023-08-24T17:02:40;5.35;;;1.10;;
40433;SDS011;26146;51.114;5.654;2023-08-24T17:06:42;4.78;;;1.10;;
40433;SDS011;26146;51.114;5.654;2023-08-24T17:10:43;4.15;;;1.02;;
40433;SDS011;26146;51.114;5.654;2023-08-24T17:14:44;5.03;;;1.20;;
40433;SDS011;26146;51.114;5.654;2023-08-24T17:18:45;3.97;;;1.00;;
40433;SDS011;26146;51.114;5.654;2023-08-24T17:22:46;4.53;;;1.00;;
40433;SDS011;26146;51.114;5.654;2023-08-24T17:26:50;5.05;;;1.00;;
40433;SDS011;26146;51.114;5.654;2023-08-24T17:30:51;4.00;;;0.90;;
40433;SDS011;26146;51.114;5.654;2023-08-24T17:34:52;2.97;;;0.90;;
40433;SDS011;26146;51.114;5.654;2023-08-24T17:38:55;5.03;;;1.00;;
40433;SDS011;26146;51.114;5.654;2023-08-24T17:42:56;5.43;;;1.00;;
40433;SDS011;26146;51.114;5.654;2023-08-24T17:46:57;3.95;;;1.00;;
40433;SDS011;26146;51.114;5.654;2023-08-24T17:51:00;5.03;;;0.90;;
40433;SDS011;26146;51.114;5.654;2023-08-24T17:55:06;4.05;;;1.00;;
40433;SDS011;26146;51.114;5.654;2023-08-24T17:59:07;5.15;;;0.80;;
40433;SDS011;26146;51.114;5.654;2023-08-24T18:03:08;4.38;;;1.00;;
40433;SDS011;26146;51.114;5.654;2023-08-24T18:07:09;4.00;;;0.82;;
40433;SDS011;26146;51.114;5.654;2023-08-24T18:11:12;5.80;;;1.20;;
40433;SDS011;26146;51.114;5.654;2023-08-24T18:15:13;9.98;;;1.50;;
40433;SDS011;26146;51.114;5.654;2023-08-24T18:19:14;4.13;;;1.00;;
40433;SDS011;26146;51.114;5.654;2023-08-24T18:23:15;4.47;;;1.20;;
40433;SDS011;26146;51.114;5.654;2023-08-24T18:27:18;6.45;;;1.15;;
40433;SDS011;26146;51.114;5.654;2023-08-24T18:31:19;5.55;;;1.35;;
40433;SDS011;26146;51.114;5.654;2023-08-24T18:35:21;4.63;;;1.30;;
40433;SDS011;26146;51.114;5.654;2023-08-24T18:39:25;6.38;;;1.58;;
40433;SDS011;26146;51.114;5.654;2023-08-24T18:43:26;36.13;;;4.03;;
40433;SDS011;26146;51.114;5.654;2023-08-24T18:47:29;7.68;;;1.80;;
40433;SDS011;26146;51.114;5.654;2023-08-24T18:51:30;6.50;;;1.80;;
40433;SDS011;26146;51.114;5.654;2023-08-24T18:55:31;9.65;;;2.10;;
40433;SDS011;26146;51.114;5.654;2023-08-24T18:59:32;11.02;;;2.20;;
40433;SDS011;26146;51.114;5.654;2023-08-24T19:03:36;8.52;;;1.70;;
40433;SDS011;26146;51.114;5.654;2023-08-24T19:07:39;6.93;;;1.70;;
40433;SDS011;26146;51.114;5.654;2023-08-24T19:11:42;5.78;;;1.70;;
40433;SDS011;26146;51.114;5.654;2023-08-24T19:15:43;7.20;;;1.58;;
40433;SDS011;26146;51.114;5.654;2023-08-24T19:19:44;6.38;;;1.58;;
40433;SDS011;26146;51.114;5.654;2023-08-24T19:23:45;7.28;;;1.73;;
40433;SDS011;26146;51.114;5.654;2023-08-24T19:27:46;5.85;;;1.98;;
40433;SDS011;26146;51.114;5.654;2023-08-24T19:31:49;6.13;;;2.10;;
40433;SDS011;26146;51.114;5.654;2023-08-24T19:35:52;5.35;;;1.77;;
40433;SDS011;26146;51.114;5.654;2023-08-24T19:39:53;6.03;;;1.70;;
40433;SDS011;26146;51.114;5.654;2023-08-24T19:43:54;4.38;;;1.60;;
40433;SDS011;26146;51.114;5.654;2023-08-24T19:47:55;5.95;;;1.98;;
40433;SDS011;26146;51.114;5.654;2023-08-24T19:51:56;5.95;;;1.92;;
40433;SDS011;26146;51.114;5.654;2023-08-24T19:55:57;6.30;;;1.90;;
40433;SDS011;26146;51.114;5.654;2023-08-24T19:59:57;7.25;;;2.00;;
40433;SDS011;26146;51.114;5.654;2023-08-24T20:03:58;7.05;;;2.00;;
40433;SDS011;26146;51.114;5.654;2023-08-24T20:08:00;6.28;;;2.42;;
40433;SDS011;26146;51.114;5.654;2023-08-24T20:12:01;5.53;;;2.10;;
40433;SDS011;26146;51.114;5.654;2023-08-24T20:16:03;7.88;;;2.10;;
40433;SDS011;26146;51.114;5.654;2023-08-24T20:20:05;7.80;;;2.25;;
40433;SDS011;26146;51.114;5.654;2023-08-24T20:24:11;5.30;;;2.20;;
40433;SDS011;26146;51.114;5.654;2023-08-24T20:28:12;6.40;;;2.17;;
40433;SDS011;26146;51.114;5.654;2023-08-24T20:32:15;7.05;;;2.20;;
40433;SDS011;26146;51.114;5.654;2023-08-24T20:36:16;6.18;;;2.13;;
40433;SDS011;26146;51.114;5.654;2023-08-24T20:40:17;8.45;;;2.50;;
40433;SDS011;26146;51.114;5.654;2023-08-24T20:44:21;8.82;;;2.67;;
40433;SDS011;26146;51.114;5.654;2023-08-24T20:48:21;9.27;;;2.47;;
40433;SDS011;26146;51.114;5.654;2023-08-24T20:52:22;6.13;;;2.15;;
40433;SDS011;26146;51.114;5.654;2023-08-24T20:56:23;5.82;;;1.90;;
40433;SDS011;26146;51.114;5.654;2023-08-24T21:00:25;5.65;;;2.13;;
40433;SDS011;26146;51.114;5.654;2023-08-24T21:04:26;6.85;;;2.10;;
40433;SDS011;26146;51.114;5.654;2023-08-24T21:08:26;8.35;;;1.90;;
40433;SDS011;26146;51.114;5.654;2023-08-24T21:12:27;7.85;;;1.90;;
40433;SDS011;26146;51.114;5.654;2023-08-24T21:16:29;5.50;;;1.75;;
40433;SDS011;26146;51.114;5.654;2023-08-24T21:20:29;7.70;;;2.00;;
40433;SDS011;26146;51.114;5.654;2023-08-24T21:24:31;6.43;;;2.10;;
40433;SDS011;26146;51.114;5.654;2023-08-24T21:28:32;5.90;;;2.20;;
40433;SDS011;26146;51.114;5.654;2023-08-24T21:32:33;6.88;;;2.20;;
40433;SDS011;26146;51.114;5.654;2023-08-24T21:36:34;6.28;;;1.90;;
40433;SDS011;26146;51.114;5.654;2023-08-24T21:40:39;9.43;;;2.40;;
40433;SDS011;26146;51.114;5.654;2023-08-24T21:44:41;6.18;;;2.10;;
40433;SDS011;26146;51.114;5.654;2023-08-24T21:48:42;6.13;;;2.38;;
40433;SDS011;26146;51.114;5.654;2023-08-24T21:52:47;6.90;;;2.10;;
40433;SDS011;26146;51.114;5.654;2023-08-24T21:56:48;5.88;;;2.08;;
40433;SDS011;26146;51.114;5.654;2023-08-24T22:00:58;6.75;;;2.00;;
40433;SDS011;26146;51.114;5.654;2023-08-24T22:05:03;5.80;;;1.90;;
40433;SDS011;26146;51.114;5.654;2023-08-24T22:09:05;6.85;;;2.22;;
40433;SDS011;26146;51.114;5.654;2023-08-24T22:13:06;5.75;;;1.98;;
40433;SDS011;26146;51.114;5.654;2023-08-24T22:17:07;6.07;;;1.98;;
40433;SDS011;26146;51.114;5.654;2023-08-24T22:21:08;6.50;;;2.25;;
40433;SDS011;26146;51.114;5.654;2023-08-24T22:25:09;8.02;;;2.40;;
40433;SDS011;26146;51.114;5.654;2023-08-24T22:29:11;10.48;;;2.60;;
40433;SDS011;26146;51.114;5.654;2023-08-24T22:33:12;9.02;;;2.42;;
40433;SDS011;26146;51.114;5.654;2023-08-24T22:37:13;8.48;;;2.30;;
40433;SDS011;26146;51.114;5.654;2023-08-24T22:41:14;6.30;;;2.40;;
40433;SDS011;26146;51.114;5.654;2023-08-24T22:45:17;6.88;;;2.58;;
40433;SDS011;26146;51.114;5.654;2023-08-24T22:49:18;7.40;;;2.50;;
40433;SDS011;26146;51.114;5.654;2023-08-24T22:53:19;7.50;;;2.63;;
40433;SDS011;26146;51.114;5.654;2023-08-24T22:57:20;6.22;;;2.45;;
40433;SDS011;26146;51.114;5.654;2023-08-24T23:01:24;7.50;;;2.90;;
40433;SDS011;26146;51.114;5.654;2023-08-24T23:05:25;8.10;;;2.75;;
40433;SDS011;26146;51.114;5.654;2023-08-24T23:09:26;8.90;;;2.78;;
40433;SDS011;26146;51.114;5.654;2023-08-24T23:13:27;6.32;;;2.50;;
40433;SDS011;26146;51.114;5.654;2023-08-24T23:17:28;8.38;;;3.22;;
40433;SDS011;26146;51.114;5.654;2023-08-24T23:21:31;10.68;;;3.53;;
40433;SDS011;26146;51.114;5.654;2023-08-24T23:25:32;7.65;;;3.55;;
40433;SDS011;26146;51.114;5.654;2023-08-24T23:29:33;8.68;;;3.90;;
40433;SDS011;26146;51.114;5.654;2023-08-24T23:33:35;8.88;;;3.92;;
40433;SDS011;26146;51.114;5.654;2023-08-24T23:37:36;9.13;;;3.97;;
40433;SDS011;26146;51.114;5.654;2023-08-24T23:41:38;8.20;;;3.45;;
40433;SDS011;26146;51.114;5.654;2023-08-24T23:45:39;8.40;;;3.38;;
40433;SDS011;26146;51.114;5.654;2023-08-24T23:49:40;10.63;;;3.75;;
40433;SDS011;26146;51.114;5.654;2023-08-24T23:53:41;8.05;;;3.35;;
40433;SDS011;26146;51.114;5.654;2023-08-24T23:57:43;8.20;;;3.20;;
